Time;durP1;ratioP1;P1;durP2;ratioP2;P2;SDS_P1;SDS_P2;PMS_P1;PMS_P2;Temp;Humidity;BMP_temperature;BMP_pressure;BME280_temperature;BME280_humidity;BME280_pressure;Samples;Min_cycle;Max_cycle;Signal;HPM_P1;HPM_P2
2022/06/26 00:00:19;;;;;;;9.20;4.55;;;;;;;18.03;75.64;100644.34;1858950;77;21152;-56
2022/06/26 00:02:48;;;;;;;8.63;4.67;;;;;;;18.03;75.56;100653.66;1859004;77;21035;-56
2022/06/26 00:05:16;;;;;;;13.40;6.35;;;;;;;18.04;75.74;100647.88;1859139;77;21520;-56
2022/06/26 00:07:46;;;;;;;15.85;6.75;;;;;;;18.03;76.12;100651.00;1858985;77;21015;-57
2022/06/26 00:10:15;;;;;;;11.83;6.95;;;;;;;18.03;76.02;100646.16;1859035;77;21485;-56
2022/06/26 00:12:43;;;;;;;13.75;6.65;;;;;;;18.02;76.02;100649.77;1859019;77;21018;-57
2022/06/26 00:15:12;;;;;;;10.98;5.42;;;;;;;17.99;76.06;100642.86;1858985;77;21729;-57
2022/06/26 00:17:41;;;;;;;12.73;5.97;;;;;;;17.95;77.01;100632.06;1858995;77;21102;-56
2022/06/26 00:20:10;;;;;;;12.90;5.33;;;;;;;17.85;78.33;100623.86;1859033;77;21053;-57
2022/06/26 00:22:39;;;;;;;8.70;4.87;;;;;;;17.80;78.33;100615.34;1859128;77;21046;-57
2022/06/26 00:25:09;;;;;;;15.63;4.62;;;;;;;17.75;77.96;100611.66;1858907;77;21043;-57
2022/06/26 00:27:37;;;;;;;8.05;4.47;;;;;;;17.74;77.79;100615.30;1859084;77;21187;-57
2022/06/26 00:30:07;;;;;;;7.25;4.53;;;;;;;17.71;77.77;100612.84;1859010;77;21144;-57
2022/06/26 00:32:35;;;;;;;9.20;4.30;;;;;;;17.71;77.76;100620.83;1859137;77;21043;-57
2022/06/26 00:35:05;;;;;;;11.05;4.08;;;;;;;17.71;77.89;100616.84;1858963;77;21121;-56
2022/06/26 00:37:33;;;;;;;9.20;4.25;;;;;;;17.71;78.01;100606.19;1859083;77;21023;-57
2022/06/26 00:40:03;;;;;;;8.78;3.90;;;;;;;17.72;78.05;100603.91;1861102;75;21085;-54
2022/06/26 00:42:32;;;;;;;9.28;4.30;;;;;;;17.72;78.08;100606.57;1891506;75;21464;-58
2022/06/26 00:45:00;;;;;;;6.80;4.10;;;;;;;17.71;78.16;100603.52;1861305;76;21039;-59
2022/06/26 00:47:34;;;;;;;8.13;4.67;;;;;;;17.69;78.21;100602.78;1855064;77;21512;-57
2022/06/26 00:50:00;;;;;;;8.05;4.28;;;;;;;17.68;78.32;100606.39;1840364;76;21557;-57
2022/06/26 00:52:29;;;;;;;8.05;4.28;;;;;;;17.67;78.31;100606.04;1859277;77;21508;-58
2022/06/26 00:54:58;;;;;;;7.15;3.90;;;;;;;17.65;78.35;100610.63;1853824;76;21106;-58
2022/06/26 00:57:26;;;;;;;4.80;3.42;;;;;;;17.64;78.41;100611.57;1853343;77;21183;-58
2022/06/26 00:59:57;;;;;;;6.40;3.25;;;;;;;17.64;78.47;100617.39;1848817;77;21121;-58
2022/06/26 01:02:25;;;;;;;7.03;3.58;;;;;;;17.61;78.57;100617.10;1822683;78;21067;-58
2022/06/26 01:04:54;;;;;;;6.40;3.37;;;;;;;17.59;78.72;100615.52;1822481;79;21083;-60
2022/06/26 01:07:23;;;;;;;11.15;3.50;;;;;;;17.53;78.82;100613.66;1822660;79;21132;-56
2022/06/26 01:09:52;;;;;;;5.45;3.52;;;;;;;17.50;78.85;100618.34;1822658;79;21062;-57
2022/06/26 01:12:21;;;;;;;5.25;3.40;;;;;;;17.46;78.95;100619.52;1822601;79;21137;-57
2022/06/26 01:14:54;;;;;;;9.05;4.05;;;;;;;17.42;79.05;100615.38;1822607;79;21070;-58
2022/06/26 01:17:23;;;;;;;7.17;4.95;;;;;;;17.38;79.08;100617.40;1822676;79;21489;-58
2022/06/26 01:19:52;;;;;;;7.42;3.47;;;;;;;17.34;79.10;100619.42;1822536;79;21101;-58
2022/06/26 01:22:20;;;;;;;9.85;4.37;;;;;;;17.31;79.15;100615.63;1822587;79;21067;-58
2022/06/26 01:24:49;;;;;;;7.45;4.17;;;;;;;17.28;79.23;100615.86;1822806;79;21098;-58
2022/06/26 01:27:18;;;;;;;6.53;4.05;;;;;;;17.25;79.30;100608.57;1822576;79;21067;-58
2022/06/26 01:29:47;;;;;;;6.53;3.67;;;;;;;17.21;79.46;100609.26;1822463;79;21118;-59
2022/06/26 01:32:16;;;;;;;5.58;2.92;;;;;;;17.18;79.57;100610.79;1822558;79;21618;-58
2022/06/26 01:34:45;;;;;;;6.40;3.90;;;;;;;17.14;79.62;100606.64;1822577;79;21063;-58
2022/06/26 01:37:14;;;;;;;5.17;3.40;;;;;;;17.10;79.76;100609.15;1822687;79;21070;-57
2022/06/26 01:39:42;;;;;;;7.67;3.85;;;;;;;17.06;79.88;100612.95;1822602;79;21125;-57
2022/06/26 01:42:11;;;;;;;6.05;3.80;;;;;;;17.03;80.03;100610.52;1822591;79;21059;-57
2022/06/26 01:44:40;;;;;;;6.15;3.98;;;;;;;17.02;80.08;100608.80;1822497;79;21059;-58
2022/06/26 01:47:09;;;;;;;5.87;3.62;;;;;;;17.00;80.10;100613.37;1822519;79;21583;-57
2022/06/26 01:49:39;;;;;;;7.62;4.05;;;;;;;16.98;80.16;100616.98;1822550;79;21537;-58
2022/06/26 01:52:08;;;;;;;10.50;3.75;;;;;;;16.94;80.25;100622.63;1822580;79;21132;-57
2022/06/26 01:54:37;;;;;;;7.95;3.70;;;;;;;16.90;80.41;100627.30;1822512;77;21154;-57
2022/06/26 01:57:06;;;;;;;9.35;4.40;;;;;;;16.89;80.71;100621.59;1822410;79;21132;-57
2022/06/26 01:59:36;;;;;;;9.48;4.60;;;;;;;16.91;80.83;100621.04;1822409;78;21521;-58
2022/06/26 02:02:06;;;;;;;6.60;3.87;;;;;;;16.93;80.98;100624.45;1821963;78;21094;-57
2022/06/26 02:04:35;;;;;;;9.80;3.90;;;;;;;16.94;80.94;100629.28;1822700;79;21066;-57
2022/06/26 02:07:04;;;;;;;7.62;4.12;;;;;;;16.96;80.92;100636.67;1822652;79;21164;-57
2022/06/26 02:14:55;;;;;;;7.10;4.42;;;;;;;17.05;80.86;100644.03;1822523;79;21055;-57
2022/06/26 02:17:24;;;;;;;10.63;4.90;;;;;;;17.11;80.72;100645.42;1822593;79;21507;-58
2022/06/26 02:19:53;;;;;;;9.28;4.83;;;;;;;17.16;80.64;100640.64;1822474;78;21046;-58
2022/06/26 02:22:22;;;;;;;7.72;4.33;;;;;;;17.20;80.58;100639.47;1822758;79;21453;-59
2022/06/26 02:24:51;;;;;;;10.43;4.35;;;;;;;17.26;80.55;100635.53;1822475;79;21022;-59
2022/06/26 02:27:20;;;;;;;6.42;3.60;;;;;;;17.29;80.58;100630.86;1822790;79;21514;-59
2022/06/26 02:29:48;;;;;;;9.75;4.28;;;;;;;17.34;80.58;100638.53;1822567;79;21062;-59
2022/06/26 02:32:17;;;;;;;8.15;3.72;;;;;;;17.39;80.53;100635.54;1822470;78;21098;-60
2022/06/26 02:34:45;;;;;;;7.08;3.70;;;;;;;17.43;80.51;100631.70;1822628;79;21196;-58
2022/06/26 02:37:14;;;;;;;10.28;3.98;;;;;;;17.47;80.49;100625.23;1822632;79;21015;-58
2022/06/26 02:39:44;;;;;;;6.72;3.67;;;;;;;17.51;80.47;100630.70;1822503;78;21525;-60
2022/06/26 02:42:13;;;;;;;8.73;3.33;;;;;;;17.53;80.44;100618.98;1822523;79;21071;-60
2022/06/26 02:44:42;;;;;;;5.60;3.10;;;;;;;17.60;80.34;100625.22;1822564;79;21533;-60
2022/06/26 02:47:11;;;;;;;7.20;3.17;;;;;;;17.65;80.28;100626.60;1822390;79;21027;-60
2022/06/26 02:49:39;;;;;;;4.53;2.92;;;;;;;17.65;80.27;100629.27;1822608;78;21034;-60
2022/06/26 02:52:09;;;;;;;4.97;2.83;;;;;;;17.70;80.19;100629.77;1822542;78;21478;-60
2022/06/26 02:54:37;;;;;;;4.33;2.50;;;;;;;17.72;80.12;100633.20;1822481;77;21109;-61
2022/06/26 02:57:06;;;;;;;6.70;3.05;;;;;;;17.74;80.09;100628.61;1822630;79;21124;-59
2022/06/26 02:59:36;;;;;;;10.00;3.22;;;;;;;17.77;80.04;100641.34;1822611;78;21152;-59
2022/06/26 03:02:06;;;;;;;5.67;2.70;;;;;;;17.80;79.95;100641.09;1822552;78;21054;-59
2022/06/26 03:04:37;;;;;;;6.17;3.17;;;;;;;17.83;79.86;100635.07;1821294;78;21082;-58
2022/06/26 03:07:06;;;;;;;6.20;2.67;;;;;;;17.86;79.80;100636.23;1822649;79;21545;-58
2022/06/26 03:09:35;;;;;;;5.70;2.40;;;;;;;17.90;79.78;100627.55;1822606;79;21495;-59
2022/06/26 03:12:05;;;;;;;9.55;3.12;;;;;;;17.94;79.69;100629.02;1822505;79;21035;-59
2022/06/26 03:14:34;;;;;;;4.95;2.25;;;;;;;17.94;79.68;100635.22;1822727;79;21105;-59
2022/06/26 03:17:03;;;;;;;5.97;2.62;;;;;;;17.96;79.68;100634.23;1822647;79;21124;-58
2022/06/26 03:19:32;;;;;;;3.65;2.40;;;;;;;17.98;79.64;100640.30;1822749;78;21054;-59
2022/06/26 03:22:00;;;;;;;4.75;2.17;;;;;;;18.00;79.57;100641.92;1822651;79;21050;-59
2022/06/26 03:24:30;;;;;;;4.40;2.33;;;;;;;18.03;79.49;100648.83;1822634;78;21501;-59
2022/06/26 03:26:58;;;;;;;4.03;2.60;;;;;;;18.03;79.42;100648.34;1822632;79;21066;-58
2022/06/26 03:29:27;;;;;;;4.03;2.33;;;;;;;18.07;79.29;100651.14;1822682;78;21047;-58
2022/06/26 03:31:56;;;;;;;4.92;2.55;;;;;;;18.10;79.16;100647.42;1822859;79;21482;-57
2022/06/26 03:34:25;;;;;;;6.40;3.40;;;;;;;18.14;79.04;100649.74;1822821;78;21099;-57
2022/06/26 03:36:53;;;;;;;5.53;2.35;;;;;;;18.19;79.02;100663.23;1822634;77;21050;-57
2022/06/26 03:39:22;;;;;;;5.10;2.70;;;;;;;18.23;78.98;100664.71;1822501;79;21121;-58
2022/06/26 03:42:00;;;;;;;4.42;2.70;;;;;;;18.28;78.89;100663.91;1822448;78;21148;-60
2022/06/26 03:44:31;;;;;;;4.47;2.35;;;;;;;18.30;78.90;100660.16;1822422;78;21074;-58
2022/06/26 03:47:00;;;;;;;6.65;2.70;;;;;;;18.35;78.92;100665.13;1822597;79;21510;-59
2022/06/26 03:49:29;;;;;;;4.90;2.67;;;;;;;18.41;78.91;100656.71;1802063;79;21118;-59
2022/06/26 03:51:59;;;;;;;7.47;2.67;;;;;;;18.49;78.90;100655.65;1822311;78;21089;-59
2022/06/26 03:54:30;;;;;;;6.03;2.60;;;;;;;18.63;78.95;100662.64;1822611;79;21153;-60
2022/06/26 03:56:59;;;;;;;3.22;2.20;;;;;;;18.80;79.02;100660.05;1822516;77;21086;-58
2022/06/26 03:59:30;;;;;;;5.55;2.80;;;;;;;19.15;79.54;100666.39;1822538;78;21126;-60
2022/06/26 04:02:00;;;;;;;5.35;2.35;;;;;;;19.55;80.11;100663.30;1822706;79;21059;-63
2022/06/26 04:04:30;;;;;;;5.53;2.80;;;;;;;19.92;80.30;100655.95;1822563;78;21529;-62
2022/06/26 04:06:59;;;;;;;3.27;2.00;;;;;;;20.18;80.04;100655.69;1822660;78;21164;-62
2022/06/26 04:09:29;;;;;;;3.20;1.85;;;;;;;20.31;79.44;100655.54;1822081;78;21102;-62
2022/06/26 04:11:58;;;;;;;4.50;1.75;;;;;;;20.29;78.78;100659.67;1822613;79;21225;-62
2022/06/26 04:14:28;;;;;;;7.78;2.20;;;;;;;20.22;78.04;100657.13;1822247;78;21101;-63
2022/06/26 04:16:58;;;;;;;2.80;1.95;;;;;;;20.16;77.42;100660.28;1822590;79;21207;-62
2022/06/26 04:19:28;;;;;;;3.55;2.15;;;;;;;20.10;77.02;100674.14;1822678;79;21098;-62
2022/06/26 04:21:59;;;;;;;2.95;2.00;;;;;;;20.05;76.62;100667.84;1822408;78;21579;-60
2022/06/26 04:24:28;;;;;;;3.72;2.00;;;;;;;20.02;76.38;100672.09;1822658;79;21140;-61
2022/06/26 04:26:57;;;;;;;5.17;2.20;;;;;;;19.97;76.15;100667.59;1822754;78;21074;-61
2022/06/26 04:29:27;;;;;;;6.30;2.17;;;;;;;19.94;75.94;100663.36;1822505;78;21150;-61
2022/06/26 04:31:56;;;;;;;3.98;2.22;;;;;;;19.95;75.86;100672.22;1822802;79;21509;-61
2022/06/26 04:34:26;;;;;;;6.45;1.85;;;;;;;19.96;75.73;100672.09;1822588;78;21524;-59
2022/06/26 04:36:55;;;;;;;4.83;2.55;;;;;;;20.06;75.58;100679.73;1822631;79;21094;-60
2022/06/26 04:39:24;;;;;;;6.62;2.10;;;;;;;20.17;75.44;100670.01;1822811;79;21524;-59
2022/06/26 04:41:53;;;;;;;6.92;4.03;;;;;;;20.20;75.17;100666.60;1822488;79;21063;-59
2022/06/26 04:44:21;;;;;;;10.75;4.35;;;;;;;20.19;74.88;100666.72;1822710;79;21128;-59
2022/06/26 04:46:52;;;;;;;13.88;5.85;;;;;;;20.11;74.64;100671.85;1822166;78;21085;-59
2022/06/26 04:49:23;;;;;;;16.77;7.20;;;;;;;20.04;74.45;100677.66;1822413;78;21529;-59
2022/06/26 04:51:52;;;;;;;13.35;6.65;;;;;;;19.97;74.38;100678.28;1822606;79;21109;-59
2022/06/26 04:54:28;;;;;;;19.70;8.65;;;;;;;19.84;74.39;100669.05;1821078;78;21549;-60
2022/06/26 04:56:56;;;;;;;15.88;6.85;;;;;;;19.74;74.37;100666.77;1830880;77;21148;-59
2022/06/26 04:59:25;;;;;;;18.25;6.12;;;;;;;19.66;74.36;100672.19;1842813;78;21161;-59
2022/06/26 05:01:55;;;;;;;12.20;5.62;;;;;;;19.61;74.33;100677.03;1841323;78;21571;-59
2022/06/26 05:04:25;;;;;;;12.35;5.65;;;;;;;19.57;74.36;100671.58;1839366;78;21086;-58
2022/06/26 05:07:02;;;;;;;5.50;2.08;;;;;;;19.53;74.42;100674.13;1812635;78;21117;-58
2022/06/26 05:09:33;;;;;;;4.03;1.90;;;;;;;19.50;74.39;100681.52;1842031;78;21533;-59
2022/06/26 05:12:02;;;;;;;3.67;2.10;;;;;;;19.45;74.37;100680.03;1842700;78;21130;-59
2022/06/26 05:14:32;;;;;;;3.02;2.17;;;;;;;19.46;74.38;100680.91;1840486;78;21173;-60
2022/06/26 05:17:02;;;;;;;2.87;1.82;;;;;;;19.46;74.41;100683.58;1839805;78;21090;-59
2022/06/26 05:19:33;;;;;;;4.90;1.62;;;;;;;19.48;74.38;100689.64;1841105;78;21070;-59
2022/06/26 05:22:02;;;;;;;2.42;1.57;;;;;;;19.47;74.32;100691.94;1842740;78;21050;-58
2022/06/26 05:24:33;;;;;;;4.95;1.95;;;;;;;19.47;74.24;100684.77;1841520;77;21180;-61
2022/06/26 05:27:01;;;;;;;4.97;2.27;;;;;;;19.49;74.17;100694.00;1842640;78;21051;-61
2022/06/26 05:29:31;;;;;;;4.35;2.08;;;;;;;19.51;74.11;100687.20;1842863;78;21502;-61
2022/06/26 05:32:00;;;;;;;14.40;7.28;;;;;;;19.57;74.05;100695.61;1842575;78;21530;-58
2022/06/26 05:34:29;;;;;;;11.40;4.65;;;;;;;19.60;74.05;100691.34;1842758;78;21172;-61
2022/06/26 05:36:57;;;;;;;10.78;5.33;;;;;;;19.61;74.00;100692.22;1842714;78;21019;-60
2022/06/26 05:39:27;;;;;;;11.25;4.47;;;;;;;19.59;73.94;100688.81;1843028;78;21556;-59
2022/06/26 05:41:56;;;;;;;8.48;3.35;;;;;;;19.57;73.86;100698.28;1842666;78;21102;-61
2022/06/26 05:44:25;;;;;;;4.40;1.52;;;;;;;19.57;73.78;100694.73;1842489;78;21655;-62
2022/06/26 05:46:54;;;;;;;11.95;3.62;;;;;;;19.56;73.75;100697.90;1842758;78;21086;-61
2022/06/26 05:49:24;;;;;;;7.70;2.00;;;;;;;19.56;73.70;100703.24;1805283;78;21487;-61
2022/06/26 05:52:05;;;;;;;8.60;2.58;;;;;;;19.57;73.66;100700.95;1783803;79;21177;-59
2022/06/26 05:54:42;;;;;;;2.55;1.70;;;;;;;19.59;73.61;100708.35;1831071;77;21470;-60
2022/06/26 05:57:21;;;;;;;4.37;2.37;;;;;;;19.56;73.58;100703.73;1839514;77;21560;-58
2022/06/26 05:59:57;;;;;;;3.15;1.90;;;;;;;19.48;73.58;100710.52;1840800;78;21082;-58
2022/06/26 06:02:27;;;;;;;4.15;2.10;;;;;;;19.45;73.59;100713.91;1839164;78;21138;-61
2022/06/26 06:04:56;;;;;;;4.25;2.20;;;;;;;19.41;73.59;100711.11;1842648;78;21038;-60
2022/06/26 06:07:25;;;;;;;6.80;2.77;;;;;;;19.38;73.53;100708.17;1842752;78;21095;-62
2022/06/26 06:09:54;;;;;;;11.88;3.58;;;;;;;19.38;73.53;100712.67;1842594;78;21067;-61
2022/06/26 06:12:23;;;;;;;7.10;2.30;;;;;;;19.39;73.53;100709.89;1842604;78;21090;-61
2022/06/26 06:14:51;;;;;;;6.17;2.70;;;;;;;19.46;73.64;100718.29;1842677;78;21157;-61
2022/06/26 06:17:37;;;;;;;17.95;4.05;;;;;;;19.53;73.62;100724.86;1842203;78;21098;-60
2022/06/26 06:20:14;;;;;;;16.75;6.22;;;;;;;19.62;73.53;100724.16;1822347;78;21149;-58
2022/06/26 06:22:47;;;;;;;10.05;4.83;;;;;;;19.77;73.37;100723.94;1841976;78;21047;-58
2022/06/26 06:25:17;;;;;;;12.00;4.43;;;;;;;19.89;73.27;100713.63;1843101;78;21030;-58
2022/06/26 06:27:46;;;;;;;9.40;4.28;;;;;;;19.99;73.13;100713.29;1842632;78;21129;-58
2022/06/26 06:30:17;;;;;;;8.68;4.40;;;;;;;20.05;73.14;100713.28;1841890;77;21086;-59
2022/06/26 06:32:49;;;;;;;10.65;3.87;;;;;;;20.11;73.08;100705.27;1842563;78;21529;-59
2022/06/26 06:35:28;;;;;;;10.03;4.42;;;;;;;20.19;73.02;100716.18;1841278;78;21086;-59
2022/06/26 06:37:57;;;;;;;12.63;3.70;;;;;;;20.20;73.00;100713.39;1842630;78;21067;-58
2022/06/26 06:40:26;;;;;;;14.60;3.90;;;;;;;20.23;72.99;100721.17;1842606;78;21133;-58
2022/06/26 06:42:56;;;;;;;7.03;2.80;;;;;;;20.24;73.02;100721.52;1842537;78;21063;-58
2022/06/26 06:45:27;;;;;;;10.38;2.92;;;;;;;20.27;72.99;100723.12;1842564;78;21095;-59
2022/06/26 06:47:57;;;;;;;8.10;2.83;;;;;;;20.25;72.94;100723.23;1842461;78;21541;-59
2022/06/26 06:50:41;;;;;;;10.00;3.22;;;;;;;20.19;72.89;100722.37;1842575;78;21125;-59
2022/06/26 06:53:10;;;;;;;9.00;3.05;;;;;;;20.19;72.82;100717.52;1842498;78;21110;-60
2022/06/26 06:55:38;;;;;;;10.95;4.00;;;;;;;20.22;72.80;100712.78;1842648;78;21039;-60
2022/06/26 06:58:08;;;;;;;5.92;3.65;;;;;;;20.31;72.77;100720.55;1842485;76;21086;-60
2022/06/26 07:00:36;;;;;;;4.50;2.85;;;;;;;20.40;72.84;100725.66;1842634;78;21059;-59
2022/06/26 07:03:07;;;;;;;7.67;3.55;;;;;;;20.40;72.85;100725.66;1842700;78;21059;-59
2022/06/26 07:05:36;;;;;;;7.67;2.83;;;;;;;20.42;72.84;100725.88;1842507;78;21047;-61
2022/06/26 07:08:07;;;;;;;3.25;2.10;;;;;;;20.47;72.79;100723.31;1842749;78;21588;-60
2022/06/26 07:10:36;;;;;;;3.33;1.80;;;;;;;20.55;72.64;100720.39;1842635;78;21046;-58
2022/06/26 07:13:05;;;;;;;3.35;1.52;;;;;;;20.58;72.53;100720.61;1842555;78;21050;-59
2022/06/26 07:15:33;;;;;;;6.78;1.92;;;;;;;20.55;72.44;100722.22;1842577;78;21627;-59
2022/06/26 07:18:05;;;;;;;3.05;1.70;;;;;;;20.51;72.38;100724.30;1842442;78;21173;-60
2022/06/26 07:20:34;;;;;;;6.40;2.33;;;;;;;20.56;72.34;100715.88;1842647;78;21595;-60
2022/06/26 07:23:04;;;;;;;7.92;2.70;;;;;;;20.63;72.27;100717.11;1842656;78;21161;-61
2022/06/26 07:25:35;;;;;;;2.17;1.80;;;;;;;20.65;72.28;100715.16;1840709;77;21149;-58
2022/06/26 07:28:05;;;;;;;6.05;1.92;;;;;;;20.64;72.30;100712.14;1842306;78;21512;-59
2022/06/26 07:30:36;;;;;;;7.03;2.37;;;;;;;20.59;72.36;100716.48;1844956;75;21118;-61
2022/06/26 07:35:37;;;;;;;3.02;1.77;;;;;;;20.62;72.50;100716.77;1863431;75;21126;-59
2022/06/26 07:38:06;;;;;;;3.55;2.12;;;;;;;20.67;72.47;100715.88;1880451;75;21507;-59
2022/06/26 07:40:35;;;;;;;2.37;1.60;;;;;;;20.71;72.39;100715.14;1864428;77;21047;-59
2022/06/26 07:43:04;;;;;;;4.28;1.70;;;;;;;20.71;72.39;100714.67;1864176;77;21068;-62
2022/06/26 07:45:34;;;;;;;2.27;1.40;;;;;;;20.71;72.32;100712.47;1863817;77;21180;-59
2022/06/26 07:48:05;;;;;;;3.25;1.47;;;;;;;20.71;72.26;100712.00;1864475;77;21159;-59
2022/06/26 07:50:35;;;;;;;3.58;1.60;;;;;;;20.73;72.09;100706.50;1868626;76;21534;-60
2022/06/26 07:53:04;;;;;;;5.30;1.55;;;;;;;20.74;71.90;100705.04;1869762;77;21051;-60
2022/06/26 07:55:33;;;;;;;2.98;1.95;;;;;;;20.74;71.78;100691.66;1869838;77;21051;-60
2022/06/26 07:58:01;;;;;;;1.95;1.42;;;;;;;20.74;71.66;100701.02;1869783;77;21099;-60
2022/06/26 08:00:30;;;;;;;4.95;1.50;;;;;;;20.74;71.61;100695.67;1881756;76;21075;-59
2022/06/26 08:03:08;;;;;;;2.72;1.67;;;;;;;20.72;71.57;100702.14;1882077;76;21113;-60
2022/06/26 08:05:38;;;;;;;2.60;1.50;;;;;;;20.66;71.51;100697.27;1886127;75;21023;-60
2022/06/26 08:08:07;;;;;;;9.23;1.90;;;;;;;20.57;71.49;100698.37;1899284;75;21477;-61
2022/06/26 08:10:37;;;;;;;4.58;1.65;;;;;;;20.52;71.57;100698.39;1901744;75;21550;-60
2022/06/26 08:13:07;;;;;;;2.47;1.50;;;;;;;20.46;71.71;100700.23;1900922;75;21465;-60
2022/06/26 08:15:36;;;;;;;3.60;1.62;;;;;;;20.38;71.74;100694.14;1902034;75;21021;-60
2022/06/26 08:18:07;;;;;;;4.00;1.40;;;;;;;20.33;71.87;100706.56;1897922;75;21015;-60
2022/06/26 08:20:36;;;;;;;2.47;1.45;;;;;;;20.31;72.01;100705.84;1897647;75;21030;-61
2022/06/26 08:23:05;;;;;;;3.80;1.47;;;;;;;20.29;72.08;100701.11;1909686;75;21168;-60
2022/06/26 08:25:34;;;;;;;3.62;1.45;;;;;;;20.31;72.10;100713.87;1918925;75;21050;-57
2022/06/26 08:28:03;;;;;;;4.10;1.70;;;;;;;20.31;72.02;100723.23;1919017;75;21551;-61
2022/06/26 08:30:32;;;;;;;5.62;2.55;;;;;;;20.21;72.05;100715.56;1919086;75;21023;-60
2022/06/26 08:33:01;;;;;;;6.10;2.12;;;;;;;20.11;72.15;100722.14;1918930;75;21082;-60
2022/06/26 08:35:30;;;;;;;5.35;2.00;;;;;;;19.97;72.44;100716.54;1918939;75;21011;-60
2022/06/26 08:37:59;;;;;;;5.70;2.10;;;;;;;19.87;73.01;100719.59;1919045;75;21108;-61
2022/06/26 08:40:29;;;;;;;5.08;2.20;;;;;;;19.79;73.12;100723.33;1918992;75;21133;-61
2022/06/26 08:43:00;;;;;;;7.40;2.65;;;;;;;19.70;73.25;100718.21;1919060;75;21105;-61
2022/06/26 08:45:30;;;;;;;4.87;2.35;;;;;;;19.66;73.49;100725.61;1918969;75;21043;-62
2022/06/26 08:47:59;;;;;;;3.52;1.75;;;;;;;19.62;73.78;100724.16;1918884;75;21919;-57
2022/06/26 08:50:30;;;;;;;6.65;2.10;;;;;;;19.60;74.00;100722.55;1918979;75;21105;-58
2022/06/26 08:53:00;;;;;;;4.65;1.80;;;;;;;19.61;74.06;100721.59;1919076;75;21035;-58
2022/06/26 08:55:29;;;;;;;3.22;1.75;;;;;;;19.61;74.25;100721.59;1918887;75;21050;-59
2022/06/26 08:57:58;;;;;;;7.22;3.02;;;;;;;19.59;74.34;100713.70;1918917;75;21481;-60
2022/06/26 09:00:26;;;;;;;6.75;2.37;;;;;;;19.53;74.52;100719.52;1927246;74;21062;-60
2022/06/26 09:02:55;;;;;;;3.33;2.12;;;;;;;19.50;74.68;100714.41;1932244;74;21062;-58
2022/06/26 09:05:24;;;;;;;7.33;2.62;;;;;;;19.55;74.91;100718.91;1932240;74;21042;-58
2022/06/26 09:07:58;;;;;;;7.42;2.20;;;;;;;19.61;75.00;100726.44;1932118;74;21042;-58
2022/06/26 09:10:34;;;;;;;5.83;2.47;;;;;;;19.62;75.11;100721.48;1931861;74;21042;-61
2022/06/26 09:13:00;;;;;;;5.33;2.65;;;;;;;19.67;75.33;100716.61;1931469;74;21015;-57
2022/06/26 09:15:28;;;;;;;5.45;2.58;;;;;;;19.79;75.52;100714.85;1932143;74;21018;-57
2022/06/26 09:18:05;;;;;;;4.80;2.45;;;;;;;19.80;75.60;100710.34;1932212;74;21124;-59
2022/06/26 09:20:36;;;;;;;4.55;2.15;;;;;;;19.81;75.84;100712.06;1932060;74;21058;-58
2022/06/26 09:23:06;;;;;;;5.83;2.60;;;;;;;19.82;75.96;100701.23;1932220;74;21026;-60
2022/06/26 09:25:39;;;;;;;3.85;2.42;;;;;;;19.86;76.32;100703.17;1932060;74;21128;-59
2022/06/26 09:28:09;;;;;;;;;;;;;;;19.96;76.44;100701.98;1934972;74;21108;-59
2022/06/26 09:30:49;;;;;;;5.87;2.27;;;;;;;20.13;76.24;100700.64;1932203;74;20400;-59
2022/06/26 09:33:20;;;;;;;5.08;2.58;;;;;;;20.29;75.96;100695.77;1932112;74;21155;-59
2022/06/26 09:35:49;;;;;;;6.10;2.40;;;;;;;20.34;76.13;100694.87;1931246;74;21003;-59
2022/06/26 09:38:20;;;;;;;2.80;1.98;;;;;;;20.40;76.28;100687.72;1932098;74;21007;-61
2022/06/26 09:40:57;;;;;;;4.40;2.47;;;;;;;20.44;76.32;100687.83;1932226;74;21422;-60
2022/06/26 09:43:34;;;;;;;3.80;2.45;;;;;;;20.54;76.44;100690.59;1932104;74;21034;-60
2022/06/26 09:46:11;;;;;;;3.50;2.05;;;;;;;20.66;76.39;100686.11;1932109;74;21010;-60
2022/06/26 09:48:41;;;;;;;3.55;2.80;;;;;;;20.79;76.33;100685.45;1932246;74;21042;-60
2022/06/26 09:51:12;;;;;;;4.17;2.20;;;;;;;20.97;76.08;100686.21;1932198;74;21513;-58
2022/06/26 09:53:41;;;;;;;4.05;2.25;;;;;;;21.14;75.76;100683.48;1932084;74;21035;-59
2022/06/26 09:56:10;;;;;;;4.15;2.05;;;;;;;21.25;75.57;100691.91;1932142;74;21493;-58
2022/06/26 09:58:38;;;;;;;4.03;2.22;;;;;;;21.24;75.52;100686.22;1932067;74;21580;-59
2022/06/26 10:06:41;;;;;;;5.42;2.80;;;;;;;21.35;75.77;100690.17;1906221;75;21031;-57
2022/06/26 10:09:11;;;;;;;3.95;3.05;;;;;;;21.45;75.58;100681.75;1906014;75;21494;-56
2022/06/26 10:11:42;;;;;;;4.22;2.70;;;;;;;21.47;75.61;100682.46;1906244;75;21039;-57
2022/06/26 10:14:17;;;;;;;4.78;3.00;;;;;;;21.46;75.62;100694.14;1906227;75;21000;-58
2022/06/26 10:17:05;;;;;;;5.65;3.17;;;;;;;21.49;75.62;100685.85;1905997;75;21032;-58
2022/06/26 10:19:43;;;;;;;3.15;2.42;;;;;;;21.44;75.74;100680.00;1906127;75;21035;-55
2022/06/26 10:22:14;;;;;;;3.30;2.72;;;;;;;21.38;75.90;100679.20;1906194;75;21070;-53
2022/06/26 10:24:58;;;;;;;7.45;2.80;;;;;;;21.38;75.86;100677.36;1906294;75;21047;-57
2022/06/26 10:27:36;;;;;;;5.85;2.50;;;;;;;21.43;75.76;100686.33;1906239;75;21008;-57
2022/06/26 10:30:13;;;;;;;4.37;2.77;;;;;;;21.59;75.65;100688.58;1906017;75;21602;-57
2022/06/26 10:32:43;;;;;;;5.05;3.05;;;;;;;21.61;75.59;100691.13;1897704;75;21046;-56
2022/06/26 10:35:14;;;;;;;6.03;2.85;;;;;;;21.54;75.55;100697.03;1915737;75;21106;-57
2022/06/26 10:37:46;;;;;;;4.65;3.27;;;;;;;21.47;75.49;100688.28;1882810;75;21044;-56
2022/06/26 10:42:52;;;;;;;4.75;2.45;;;;;;;21.39;75.44;100688.92;1864068;77;21098;-56
2022/06/26 10:42:53;;;;;;;3.22;2.15;;;;;;;21.35;75.66;100690.17;1860654;77;21064;-56
2022/06/26 10:45:34;;;;;;;5.37;2.33;;;;;;;21.32;75.63;100696.64;1864462;77;21118;-57
2022/06/26 10:48:07;;;;;;;8.03;4.08;;;;;;;21.30;75.53;100690.58;1864283;77;21095;-57
2022/06/26 10:50:41;;;;;;;12.20;5.67;;;;;;;21.30;75.39;100693.72;1869472;77;21110;-55
2022/06/26 10:53:25;;;;;;;4.55;2.30;;;;;;;21.23;75.31;100690.73;1869648;77;21117;-56
2022/06/26 10:56:02;;;;;;;6.20;2.30;;;;;;;21.15;75.28;100689.17;1869698;77;21114;-57
2022/06/26 10:58:36;;;;;;;4.78;2.50;;;;;;;21.04;75.21;100694.59;1869756;77;21028;-56
2022/06/26 11:01:07;;;;;;;6.15;3.58;;;;;;;20.95;75.30;100692.19;1863549;76;21548;-57
2022/06/26 11:03:38;;;;;;;4.78;3.47;;;;;;;20.91;75.38;100693.42;1848785;77;21180;-56
2022/06/26 11:06:15;;;;;;;4.83;3.27;;;;;;;20.91;75.40;100695.61;1848798;77;21548;-58
2022/06/26 11:08:51;;;;;;;5.65;3.37;;;;;;;20.86;75.46;100698.30;1848773;77;21050;-57
2022/06/26 11:11:25;;;;;;;6.92;3.10;;;;;;;20.79;75.46;100702.84;1848804;77;21047;-59
2022/06/26 11:14:08;;;;;;;5.50;2.50;;;;;;;20.77;75.48;100709.30;1847294;77;21042;-59
2022/06/26 11:16:45;;;;;;;5.25;2.80;;;;;;;20.71;75.53;100707.12;1848958;77;21050;-59
2022/06/26 11:19:25;;;;;;;7.58;2.52;;;;;;;20.64;75.45;100717.48;1848850;77;21042;-59
2022/06/26 11:22:08;;;;;;;7.47;2.55;;;;;;;20.55;75.52;100723.06;1849104;77;21104;-59
2022/06/26 11:24:37;;;;;;;;;;;;;;;20.50;75.55;100716.39;1851691;77;21018;-59
2022/06/26 11:27:06;;;;;;;6.08;3.35;;;;;;;20.46;75.56;100716.28;1843898;77;20124;-59
2022/06/26 11:29:34;;;;;;;4.60;2.95;;;;;;;20.40;75.51;100710.45;1843639;78;21031;-59
2022/06/26 11:32:04;;;;;;;9.33;4.95;;;;;;;20.36;75.63;100711.68;1843522;78;21585;-59
2022/06/26 11:34:33;;;;;;;9.05;4.15;;;;;;;20.36;75.73;100719.70;1843516;78;21078;-59
2022/06/26 11:37:02;;;;;;;7.30;3.25;;;;;;;20.34;75.75;100712.76;1843658;78;21470;-60
2022/06/26 11:39:44;;;;;;;5.67;3.08;;;;;;;20.34;75.88;100718.11;1843655;78;21059;-59
2022/06/26 11:42:23;;;;;;;6.78;3.30;;;;;;;20.34;75.94;100717.61;1843712;78;21485;-59
2022/06/26 11:44:53;;;;;;;7.08;2.92;;;;;;;20.35;75.97;100714.47;1843557;78;21036;-59
2022/06/26 11:47:23;;;;;;;7.45;3.25;;;;;;;20.33;76.02;100714.59;1843610;78;21073;-59
2022/06/26 11:49:52;;;;;;;7.47;3.30;;;;;;;20.34;76.08;100712.27;1843590;78;21066;-60
2022/06/26 11:52:20;;;;;;;9.08;3.33;;;;;;;20.34;76.15;100714.09;1843440;77;21061;-60